sensor_id;sensor_type;location;lat;lon;timestamp;temperature;humidity
26721;HTU21D;15950;51.112;6.966;2023-06-04T00:02:10;15.76;44.10
26721;HTU21D;15950;51.112;6.966;2023-06-04T00:05:10;15.90;44.68
26721;HTU21D;15950;51.112;6.966;2023-06-04T00:08:10;15.84;44.57
26721;HTU21D;15950;51.112;6.966;2023-06-04T00:11:10;15.95;45.00
26721;HTU21D;15950;51.112;6.966;2023-06-04T00:14:10;15.85;45.42
26721;HTU21D;15950;51.112;6.966;2023-06-04T00:17:11;15.86;45.71
26721;HTU21D;15950;51.112;6.966;2023-06-04T00:20:10;15.97;45.59
26721;HTU21D;15950;51.112;6.966;2023-06-04T00:23:10;15.94;45.09
26721;HTU21D;15950;51.112;6.966;2023-06-04T00:26:10;15.70;46.31
26721;HTU21D;15950;51.112;6.966;2023-06-04T00:29:10;15.67;46.61
26721;HTU21D;15950;51.112;6.966;2023-06-04T00:32:10;15.68;46.37
26721;HTU21D;15950;51.112;6.966;2023-06-04T00:35:10;15.74;46.77
26721;HTU21D;15950;51.112;6.966;2023-06-04T00:38:10;15.53;46.50
26721;HTU21D;15950;51.112;6.966;2023-06-04T00:41:10;15.48;47.19
26721;HTU21D;15950;51.112;6.966;2023-06-04T00:44:10;15.30;47.34
26721;HTU21D;15950;51.112;6.966;2023-06-04T00:47:17;15.13;47.97
26721;HTU21D;15950;51.112;6.966;2023-06-04T00:50:11;15.09;49.24
26721;HTU21D;15950;51.112;6.966;2023-06-04T00:53:10;14.99;49.05
26721;HTU21D;15950;51.112;6.966;2023-06-04T00:56:11;14.73;50.14
26721;HTU21D;15950;51.112;6.966;2023-06-04T00:59:10;14.85;50.21
26721;HTU21D;15950;51.112;6.966;2023-06-04T01:02:16;14.90;49.75
26721;HTU21D;15950;51.112;6.966;2023-06-04T01:08:11;14.74;50.55
26721;HTU21D;15950;51.112;6.966;2023-06-04T01:11:10;14.76;50.14
26721;HTU21D;15950;51.112;6.966;2023-06-04T01:14:10;14.66;49.93
26721;HTU21D;15950;51.112;6.966;2023-06-04T01:17:17;14.60;50.83
26721;HTU21D;15950;51.112;6.966;2023-06-04T01:20:18;14.36;51.41
26721;HTU21D;15950;51.112;6.966;2023-06-04T01:26:10;14.20;52.31
26721;HTU21D;15950;51.112;6.966;2023-06-04T01:29:10;14.34;52.33
26721;HTU21D;15950;51.112;6.966;2023-06-04T01:32:10;14.10;52.78
26721;HTU21D;15950;51.112;6.966;2023-06-04T01:35:12;14.01;53.33
26721;HTU21D;15950;51.112;6.966;2023-06-04T01:38:11;13.73;53.71
26721;HTU21D;15950;51.112;6.966;2023-06-04T01:41:10;13.69;53.99
26721;HTU21D;15950;51.112;6.966;2023-06-04T01:44:10;13.61;54.39
26721;HTU21D;15950;51.112;6.966;2023-06-04T01:47:10;13.65;53.46
26721;HTU21D;15950;51.112;6.966;2023-06-04T01:50:10;13.74;53.62
26721;HTU21D;15950;51.112;6.966;2023-06-04T01:53:10;13.74;53.96
26721;HTU21D;15950;51.112;6.966;2023-06-04T01:56:10;13.49;54.42
26721;HTU21D;15950;51.112;6.966;2023-06-04T01:59:10;13.77;54.17
26721;HTU21D;15950;51.112;6.966;2023-06-04T02:02:10;13.68;54.97
26721;HTU21D;15950;51.112;6.966;2023-06-04T02:05:10;13.68;54.93
26721;HTU21D;15950;51.112;6.966;2023-06-04T02:08:10;13.61;54.84
26721;HTU21D;15950;51.112;6.966;2023-06-04T02:11:10;13.68;55.10
26721;HTU21D;15950;51.112;6.966;2023-06-04T02:14:10;13.59;55.10
26721;HTU21D;15950;51.112;6.966;2023-06-04T02:17:11;13.83;54.24
26721;HTU21D;15950;51.112;6.966;2023-06-04T02:20:11;13.80;54.10
26721;HTU21D;15950;51.112;6.966;2023-06-04T02:23:11;13.64;54.44
26721;HTU21D;15950;51.112;6.966;2023-06-04T02:26:10;13.61;54.99
26721;HTU21D;15950;51.112;6.966;2023-06-04T02:29:10;13.28;55.61
26721;HTU21D;15950;51.112;6.966;2023-06-04T02:32:11;13.26;55.55
26721;HTU21D;15950;51.112;6.966;2023-06-04T02:35:10;13.16;56.39
26721;HTU21D;15950;51.112;6.966;2023-06-04T02:38:10;13.11;55.81
26721;HTU21D;15950;51.112;6.966;2023-06-04T02:41:10;13.15;56.55
26721;HTU21D;15950;51.112;6.966;2023-06-04T02:44:10;12.91;57.35
26721;HTU21D;15950;51.112;6.966;2023-06-04T02:47:10;13.02;57.34
26721;HTU21D;15950;51.112;6.966;2023-06-04T02:50:11;12.80;57.83
26721;HTU21D;15950;51.112;6.966;2023-06-04T02:53:10;12.77;58.07
26721;HTU21D;15950;51.112;6.966;2023-06-04T02:56:10;12.81;57.87
26721;HTU21D;15950;51.112;6.966;2023-06-04T02:59:10;12.76;58.13
26721;HTU21D;15950;51.112;6.966;2023-06-04T03:02:10;12.70;58.42
26721;HTU21D;15950;51.112;6.966;2023-06-04T03:05:12;12.51;58.97
26721;HTU21D;15950;51.112;6.966;2023-06-04T03:08:10;12.23;59.71
26721;HTU21D;15950;51.112;6.966;2023-06-04T03:11:10;12.46;59.23
26721;HTU21D;15950;51.112;6.966;2023-06-04T03:14:10;12.14;59.67
26721;HTU21D;15950;51.112;6.966;2023-06-04T03:17:10;12.22;60.12
26721;HTU21D;15950;51.112;6.966;2023-06-04T03:20:10;12.34;59.70
26721;HTU21D;15950;51.112;6.966;2023-06-04T03:23:10;12.16;60.17
26721;HTU21D;15950;51.112;6.966;2023-06-04T03:26:10;12.01;60.24
26721;HTU21D;15950;51.112;6.966;2023-06-04T03:29:10;12.01;60.95
26721;HTU21D;15950;51.112;6.966;2023-06-04T03:32:10;12.06;60.79
26721;HTU21D;15950;51.112;6.966;2023-06-04T03:35:10;12.08;60.66
26721;HTU21D;15950;51.112;6.966;2023-06-04T03:38:10;12.13;60.46
26721;HTU21D;15950;51.112;6.966;2023-06-04T03:41:10;12.15;60.51
26721;HTU21D;15950;51.112;6.966;2023-06-04T03:44:13;12.20;60.51
26721;HTU21D;15950;51.112;6.966;2023-06-04T03:47:10;12.18;60.59
26721;HTU21D;15950;51.112;6.966;2023-06-04T03:50:10;12.16;60.44
26721;HTU21D;15950;51.112;6.966;2023-06-04T03:53:10;12.21;60.64
26721;HTU21D;15950;51.112;6.966;2023-06-04T03:56:10;12.23;60.80
26721;HTU21D;15950;51.112;6.966;2023-06-04T03:59:10;12.06;61.41
26721;HTU21D;15950;51.112;6.966;2023-06-04T04:02:10;12.10;61.73
26721;HTU21D;15950;51.112;6.966;2023-06-04T04:05:10;12.07;61.94
26721;HTU21D;15950;51.112;6.966;2023-06-04T04:08:10;12.20;62.11
26721;HTU21D;15950;51.112;6.966;2023-06-04T04:11:14;11.99;62.76
26721;HTU21D;15950;51.112;6.966;2023-06-04T04:14:10;11.98;63.21
26721;HTU21D;15950;51.112;6.966;2023-06-04T04:17:10;11.89;63.95
26721;HTU21D;15950;51.112;6.966;2023-06-04T04:20:10;12.02;63.61
26721;HTU21D;15950;51.112;6.966;2023-06-04T04:23:10;12.07;63.93
26721;HTU21D;15950;51.112;6.966;2023-06-04T04:26:10;12.06;63.90
26721;HTU21D;15950;51.112;6.966;2023-06-04T04:29:10;12.08;64.40
26721;HTU21D;15950;51.112;6.966;2023-06-04T04:32:10;12.08;64.92
26721;HTU21D;15950;51.112;6.966;2023-06-04T04:35:10;12.18;64.68
26721;HTU21D;15950;51.112;6.966;2023-06-04T04:38:10;12.30;64.62
26721;HTU21D;15950;51.112;6.966;2023-06-04T04:41:10;12.25;64.55
26721;HTU21D;15950;51.112;6.966;2023-06-04T04:44:10;12.41;64.39
26721;HTU21D;15950;51.112;6.966;2023-06-04T04:47:10;12.58;63.60
26721;HTU21D;15950;51.112;6.966;2023-06-04T04:50:10;12.62;64.66
26721;HTU21D;15950;51.112;6.966;2023-06-04T04:53:10;12.61;64.92
26721;HTU21D;15950;51.112;6.966;2023-06-04T04:56:10;12.68;65.85
26721;HTU21D;15950;51.112;6.966;2023-06-04T04:59:10;12.79;64.89
26721;HTU21D;15950;51.112;6.966;2023-06-04T05:02:10;12.93;63.94
26721;HTU21D;15950;51.112;6.966;2023-06-04T05:05:10;12.92;64.72
26721;HTU21D;15950;51.112;6.966;2023-06-04T05:08:11;12.95;65.82
26721;HTU21D;15950;51.112;6.966;2023-06-04T05:11:10;12.88;66.13
26721;HTU21D;15950;51.112;6.966;2023-06-04T05:14:10;13.00;64.72
26721;HTU21D;15950;51.112;6.966;2023-06-04T05:17:10;12.99;65.31
26721;HTU21D;15950;51.112;6.966;2023-06-04T05:20:10;13.13;64.56
26721;HTU21D;15950;51.112;6.966;2023-06-04T05:23:10;13.26;64.20
26721;HTU21D;15950;51.112;6.966;2023-06-04T05:26:10;13.33;63.50
26721;HTU21D;15950;51.112;6.966;2023-06-04T05:29:10;13.27;63.67
26721;HTU21D;15950;51.112;6.966;2023-06-04T05:32:10;13.41;62.78
26721;HTU21D;15950;51.112;6.966;2023-06-04T05:35:10;13.61;59.15
26721;HTU21D;15950;51.112;6.966;2023-06-04T05:38:10;13.70;59.62
26721;HTU21D;15950;51.112;6.966;2023-06-04T05:41:10;13.84;59.72
26721;HTU21D;15950;51.112;6.966;2023-06-04T05:44:10;14.13;55.21
26721;HTU21D;15950;51.112;6.966;2023-06-04T05:47:10;14.20;54.57
26721;HTU21D;15950;51.112;6.966;2023-06-04T05:50:10;14.48;52.60
26721;HTU21D;15950;51.112;6.966;2023-06-04T05:53:10;14.62;51.97
26721;HTU21D;15950;51.112;6.966;2023-06-04T05:56:10;14.86;51.53
26721;HTU21D;15950;51.112;6.966;2023-06-04T05:59:10;15.00;50.74
26721;HTU21D;15950;51.112;6.966;2023-06-04T06:02:10;15.13;50.73
26721;HTU21D;15950;51.112;6.966;2023-06-04T06:05:10;15.40;50.09
26721;HTU21D;15950;51.112;6.966;2023-06-04T06:08:10;15.53;50.07
26721;HTU21D;15950;51.112;6.966;2023-06-04T06:11:10;15.61;49.94
26721;HTU21D;15950;51.112;6.966;2023-06-04T06:14:10;15.79;49.19
26721;HTU21D;15950;51.112;6.966;2023-06-04T06:17:10;16.00;48.79
26721;HTU21D;15950;51.112;6.966;2023-06-04T06:20:10;16.18;47.67
26721;HTU21D;15950;51.112;6.966;2023-06-04T06:23:10;16.45;47.73
26721;HTU21D;15950;51.112;6.966;2023-06-04T06:26:10;16.45;47.38
26721;HTU21D;15950;51.112;6.966;2023-06-04T06:29:10;16.63;48.03
26721;HTU21D;15950;51.112;6.966;2023-06-04T06:32:10;16.78;47.27
26721;HTU21D;15950;51.112;6.966;2023-06-04T06:35:10;16.96;47.27
26721;HTU21D;15950;51.112;6.966;2023-06-04T06:38:10;17.13;46.47
26721;HTU21D;15950;51.112;6.966;2023-06-04T06:41:10;17.28;45.19
26721;HTU21D;15950;51.112;6.966;2023-06-04T06:44:10;17.02;47.47
26721;HTU21D;15950;51.112;6.966;2023-06-04T06:47:10;17.32;45.32
26721;HTU21D;15950;51.112;6.966;2023-06-04T06:50:10;17.41;45.06
26721;HTU21D;15950;51.112;6.966;2023-06-04T06:53:10;17.64;45.24
26721;HTU21D;15950;51.112;6.966;2023-06-04T06:56:10;17.76;44.62
26721;HTU21D;15950;51.112;6.966;2023-06-04T06:59:10;18.07;44.29
26721;HTU21D;15950;51.112;6.966;2023-06-04T07:02:10;18.37;43.96
26721;HTU21D;15950;51.112;6.966;2023-06-04T07:05:11;18.54;43.05
26721;HTU21D;15950;51.112;6.966;2023-06-04T07:08:14;18.67;42.80
26721;HTU21D;15950;51.112;6.966;2023-06-04T07:11:12;18.79;41.57
26721;HTU21D;15950;51.112;6.966;2023-06-04T07:14:10;18.72;40.91
26721;HTU21D;15950;51.112;6.966;2023-06-04T07:17:10;18.81;41.53
26721;HTU21D;15950;51.112;6.966;2023-06-04T07:20:10;19.04;41.48
26721;HTU21D;15950;51.112;6.966;2023-06-04T07:23:10;19.24;40.66
26721;HTU21D;15950;51.112;6.966;2023-06-04T07:26:10;19.36;40.37
26721;HTU21D;15950;51.112;6.966;2023-06-04T07:29:10;19.69;41.64
26721;HTU21D;15950;51.112;6.966;2023-06-04T07:32:10;19.85;40.18
26721;HTU21D;15950;51.112;6.966;2023-06-04T07:35:10;19.79;38.42
26721;HTU21D;15950;51.112;6.966;2023-06-04T07:38:10;19.84;39.87
26721;HTU21D;15950;51.112;6.966;2023-06-04T07:41:10;19.82;41.25
26721;HTU21D;15950;51.112;6.966;2023-06-04T07:44:10;20.28;40.13
26721;HTU21D;15950;51.112;6.966;2023-06-04T07:47:10;20.20;39.23
26721;HTU21D;15950;51.112;6.966;2023-06-04T07:50:10;20.38;39.34
26721;HTU21D;15950;51.112;6.966;2023-06-04T07:53:10;20.33;36.06
26721;HTU21D;15950;51.112;6.966;2023-06-04T07:56:10;20.51;37.69
26721;HTU21D;15950;51.112;6.966;2023-06-04T07:59:10;20.27;35.75
26721;HTU21D;15950;51.112;6.966;2023-06-04T08:02:10;20.74;35.23
26721;HTU21D;15950;51.112;6.966;2023-06-04T08:05:10;20.52;36.02
26721;HTU21D;15950;51.112;6.966;2023-06-04T08:08:10;20.68;35.19
26721;HTU21D;15950;51.112;6.966;2023-06-04T08:11:10;20.63;34.53
26721;HTU21D;15950;51.112;6.966;2023-06-04T08:14:12;20.66;34.21
26721;HTU21D;15950;51.112;6.966;2023-06-04T08:17:10;20.68;35.09
26721;HTU21D;15950;51.112;6.966;2023-06-04T08:20:10;20.76;34.76
26721;HTU21D;15950;51.112;6.966;2023-06-04T08:23:12;21.14;35.39
26721;HTU21D;15950;51.112;6.966;2023-06-04T08:26:10;20.93;34.40
26721;HTU21D;15950;51.112;6.966;2023-06-04T08:29:10;21.26;34.56
26721;HTU21D;15950;51.112;6.966;2023-06-04T08:32:10;21.02;33.30
26721;HTU21D;15950;51.112;6.966;2023-06-04T08:35:10;21.09;34.38
26721;HTU21D;15950;51.112;6.966;2023-06-04T08:38:10;21.26;34.08
26721;HTU21D;15950;51.112;6.966;2023-06-04T08:44:11;21.70;33.69
26721;HTU21D;15950;51.112;6.966;2023-06-04T08:47:12;21.52;33.24
26721;HTU21D;15950;51.112;6.966;2023-06-04T08:50:11;21.53;33.10
26721;HTU21D;15950;51.112;6.966;2023-06-04T08:53:11;21.46;32.56
26721;HTU21D;15950;51.112;6.966;2023-06-04T08:56:10;21.55;32.61
26721;HTU21D;15950;51.112;6.966;2023-06-04T08:59:10;21.47;32.55
26721;HTU21D;15950;51.112;6.966;2023-06-04T09:02:11;21.50;32.15
26721;HTU21D;15950;51.112;6.966;2023-06-04T09:05:10;21.52;32.70
26721;HTU21D;15950;51.112;6.966;2023-06-04T09:08:12;21.82;32.99
26721;HTU21D;15950;51.112;6.966;2023-06-04T09:11:12;21.91;33.13
26721;HTU21D;15950;51.112;6.966;2023-06-04T09:14:11;22.21;32.30
26721;HTU21D;15950;51.112;6.966;2023-06-04T09:17:10;22.01;31.57
26721;HTU21D;15950;51.112;6.966;2023-06-04T09:20:21;22.16;30.59
26721;HTU21D;15950;51.112;6.966;2023-06-04T09:23:14;22.15;30.81
26721;HTU21D;15950;51.112;6.966;2023-06-04T09:26:11;21.84;30.65
26721;HTU21D;15950;51.112;6.966;2023-06-04T09:29:10;22.03;30.38
26721;HTU21D;15950;51.112;6.966;2023-06-04T09:32:12;21.81;30.50
26721;HTU21D;15950;51.112;6.966;2023-06-04T09:35:16;21.76;30.32
26721;HTU21D;15950;51.112;6.966;2023-06-04T09:38:10;21.89;30.99
26721;HTU21D;15950;51.112;6.966;2023-06-04T09:44:10;21.90;29.03
26721;HTU21D;15950;51.112;6.966;2023-06-04T09:47:10;22.18;30.34
26721;HTU21D;15950;51.112;6.966;2023-06-04T09:50:13;22.33;30.15
26721;HTU21D;15950;51.112;6.966;2023-06-04T09:56:10;22.19;29.61
26721;HTU21D;15950;51.112;6.966;2023-06-04T09:59:10;22.35;31.11
26721;HTU21D;15950;51.112;6.966;2023-06-04T10:02:11;22.31;30.25
26721;HTU21D;15950;51.112;6.966;2023-06-04T10:05:11;22.39;29.69
26721;HTU21D;15950;51.112;6.966;2023-06-04T10:08:11;22.54;30.40
26721;HTU21D;15950;51.112;6.966;2023-06-04T10:11:11;22.44;27.74
26721;HTU21D;15950;51.112;6.966;2023-06-04T10:14:18;22.56;28.36
26721;HTU21D;15950;51.112;6.966;2023-06-04T10:17:11;22.73;28.65
26721;HTU21D;15950;51.112;6.966;2023-06-04T10:20:11;22.70;28.58
26721;HTU21D;15950;51.112;6.966;2023-06-04T10:23:10;22.85;29.03
26721;HTU21D;15950;51.112;6.966;2023-06-04T10:26:13;22.52;28.29
26721;HTU21D;15950;51.112;6.966;2023-06-04T10:29:10;22.78;29.06
26721;HTU21D;15950;51.112;6.966;2023-06-04T10:32:10;23.03;28.94
26721;HTU21D;15950;51.112;6.966;2023-06-04T10:35:10;22.79;28.68
26721;HTU21D;15950;51.112;6.966;2023-06-04T10:38:13;23.05;28.21
26721;HTU21D;15950;51.112;6.966;2023-06-04T10:41:14;22.68;27.81
26721;HTU21D;15950;51.112;6.966;2023-06-04T10:44:10;22.94;28.14
26721;HTU21D;15950;51.112;6.966;2023-06-04T10:47:33;23.17;28.43
26721;HTU21D;15950;51.112;6.966;2023-06-04T10:50:11;23.14;27.50
26721;HTU21D;15950;51.112;6.966;2023-06-04T10:53:10;23.25;27.14
26721;HTU21D;15950;51.112;6.966;2023-06-04T10:56:10;22.78;27.89
26721;HTU21D;15950;51.112;6.966;2023-06-04T10:59:16;22.99;30.01
26721;HTU21D;15950;51.112;6.966;2023-06-04T11:02:10;23.10;27.62
26721;HTU21D;15950;51.112;6.966;2023-06-04T11:05:10;23.21;28.23
26721;HTU21D;15950;51.112;6.966;2023-06-04T11:08:12;23.18;29.20
26721;HTU21D;15950;51.112;6.966;2023-06-04T11:11:11;23.25;30.62
26721;HTU21D;15950;51.112;6.966;2023-06-04T11:14:11;23.31;30.25
26721;HTU21D;15950;51.112;6.966;2023-06-04T11:17:11;23.06;30.75
26721;HTU21D;15950;51.112;6.966;2023-06-04T11:20:15;23.01;30.59
26721;HTU21D;15950;51.112;6.966;2023-06-04T11:23:12;22.96;30.06
26721;HTU21D;15950;51.112;6.966;2023-06-04T11:26:10;23.06;30.77
26721;HTU21D;15950;51.112;6.966;2023-06-04T11:29:11;22.96;30.42
26721;HTU21D;15950;51.112;6.966;2023-06-04T11:35:10;23.11;31.51
26721;HTU21D;15950;51.112;6.966;2023-06-04T11:38:10;22.73;30.93
26721;HTU21D;15950;51.112;6.966;2023-06-04T11:41:10;22.55;30.83
26721;HTU21D;15950;51.112;6.966;2023-06-04T11:44:12;22.70;31.24
26721;HTU21D;15950;51.112;6.966;2023-06-04T11:47:10;22.55;31.16
26721;HTU21D;15950;51.112;6.966;2023-06-04T11:50:10;22.74;30.58
26721;HTU21D;15950;51.112;6.966;2023-06-04T11:53:10;22.87;31.06
26721;HTU21D;15950;51.112;6.966;2023-06-04T11:56:10;22.94;30.85
26721;HTU21D;15950;51.112;6.966;2023-06-04T11:59:14;22.87;31.06
26721;HTU21D;15950;51.112;6.966;2023-06-04T12:02:10;23.12;31.73
26721;HTU21D;15950;51.112;6.966;2023-06-04T12:05:12;23.14;30.31
26721;HTU21D;15950;51.112;6.966;2023-06-04T12:08:10;23.26;31.25
26721;HTU21D;15950;51.112;6.966;2023-06-04T12:11:10;22.92;30.62
26721;HTU21D;15950;51.112;6.966;2023-06-04T12:14:15;23.10;30.96
26721;HTU21D;15950;51.112;6.966;2023-06-04T12:17:10;22.87;31.27
26721;HTU21D;15950;51.112;6.966;2023-06-04T12:20:10;22.96;30.95
26721;HTU21D;15950;51.112;6.966;2023-06-04T12:23:19;22.91;30.96
26721;HTU21D;15950;51.112;6.966;2023-06-04T12:29:12;22.66;30.64
26721;HTU21D;15950;51.112;6.966;2023-06-04T12:32:10;22.73;30.57
26721;HTU21D;15950;51.112;6.966;2023-06-04T12:35:10;23.15;31.00
26721;HTU21D;15950;51.112;6.966;2023-06-04T12:38:10;23.15;31.25
26721;HTU21D;15950;51.112;6.966;2023-06-04T12:41:10;23.12;31.64
26721;HTU21D;15950;51.112;6.966;2023-06-04T12:44:10;23.35;31.47
26721;HTU21D;15950;51.112;6.966;2023-06-04T12:47:10;23.11;30.82
26721;HTU21D;15950;51.112;6.966;2023-06-04T12:50:10;23.12;30.63
26721;HTU21D;15950;51.112;6.966;2023-06-04T12:53:10;23.20;31.12
26721;HTU21D;15950;51.112;6.966;2023-06-04T12:56:10;23.38;31.98
26721;HTU21D;15950;51.112;6.966;2023-06-04T12:59:10;23.18;31.43
26721;HTU21D;15950;51.112;6.966;2023-06-04T13:02:10;23.33;31.74
26721;HTU21D;15950;51.112;6.966;2023-06-04T13:05:10;23.33;31.61
26721;HTU21D;15950;51.112;6.966;2023-06-04T13:08:10;23.23;30.32
26721;HTU21D;15950;51.112;6.966;2023-06-04T13:11:10;23.24;30.10
26721;HTU21D;15950;51.112;6.966;2023-06-04T13:14:10;23.11;30.90
26721;HTU21D;15950;51.112;6.966;2023-06-04T13:17:10;23.20;31.14
26721;HTU21D;15950;51.112;6.966;2023-06-04T13:20:10;23.28;31.06
26721;HTU21D;15950;51.112;6.966;2023-06-04T13:23:10;23.25;30.76
26721;HTU21D;15950;51.112;6.966;2023-06-04T13:26:10;23.22;31.66
26721;HTU21D;15950;51.112;6.966;2023-06-04T13:29:10;23.44;30.94
26721;HTU21D;15950;51.112;6.966;2023-06-04T13:32:10;23.38;30.96
26721;HTU21D;15950;51.112;6.966;2023-06-04T13:35:10;23.44;31.87
26721;HTU21D;15950;51.112;6.966;2023-06-04T13:38:10;23.21;31.63
26721;HTU21D;15950;51.112;6.966;2023-06-04T13:41:10;23.29;31.38
26721;HTU21D;15950;51.112;6.966;2023-06-04T13:44:10;23.02;31.63
26721;HTU21D;15950;51.112;6.966;2023-06-04T13:47:10;23.12;31.31
26721;HTU21D;15950;51.112;6.966;2023-06-04T13:50:10;23.28;31.43
26721;HTU21D;15950;51.112;6.966;2023-06-04T13:53:10;23.42;31.22
26721;HTU21D;15950;51.112;6.966;2023-06-04T13:56:10;23.44;31.90
26721;HTU21D;15950;51.112;6.966;2023-06-04T13:59:10;23.50;31.35
26721;HTU21D;15950;51.112;6.966;2023-06-04T14:02:10;23.52;32.15
26721;HTU21D;15950;51.112;6.966;2023-06-04T14:05:10;23.70;30.86
26721;HTU21D;15950;51.112;6.966;2023-06-04T14:08:10;23.68;31.04
26721;HTU21D;15950;51.112;6.966;2023-06-04T14:11:10;23.70;31.56
26721;HTU21D;15950;51.112;6.966;2023-06-04T14:14:10;23.76;31.61
26721;HTU21D;15950;51.112;6.966;2023-06-04T14:17:10;23.71;31.85
26721;HTU21D;15950;51.112;6.966;2023-06-04T14:20:10;23.77;32.03
26721;HTU21D;15950;51.112;6.966;2023-06-04T14:23:10;23.94;32.05
26721;HTU21D;15950;51.112;6.966;2023-06-04T14:26:10;23.69;31.02
26721;HTU21D;15950;51.112;6.966;2023-06-04T14:29:10;23.80;31.11
26721;HTU21D;15950;51.112;6.966;2023-06-04T14:32:10;23.81;30.42
26721;HTU21D;15950;51.112;6.966;2023-06-04T14:35:10;23.86;30.67
26721;HTU21D;15950;51.112;6.966;2023-06-04T14:38:10;24.00;32.06
26721;HTU21D;15950;51.112;6.966;2023-06-04T14:41:10;24.01;32.15
26721;HTU21D;15950;51.112;6.966;2023-06-04T14:44:10;23.95;31.55
26721;HTU21D;15950;51.112;6.966;2023-06-04T14:47:10;23.85;31.41
26721;HTU21D;15950;51.112;6.966;2023-06-04T14:50:10;23.97;32.47
26721;HTU21D;15950;51.112;6.966;2023-06-04T14:53:11;23.75;32.48
26721;HTU21D;15950;51.112;6.966;2023-06-04T14:56:10;23.76;31.80
26721;HTU21D;15950;51.112;6.966;2023-06-04T14:59:10;23.88;32.06
26721;HTU21D;15950;51.112;6.966;2023-06-04T15:02:10;24.07;32.35
26721;HTU21D;15950;51.112;6.966;2023-06-04T15:05:10;23.98;32.41
26721;HTU21D;15950;51.112;6.966;2023-06-04T15:08:10;23.85;31.47
26721;HTU21D;15950;51.112;6.966;2023-06-04T15:11:10;23.96;31.95
26721;HTU21D;15950;51.112;6.966;2023-06-04T15:14:10;24.00;31.91
26721;HTU21D;15950;51.112;6.966;2023-06-04T15:17:10;24.11;32.07
26721;HTU21D;15950;51.112;6.966;2023-06-04T15:20:10;23.99;31.79
26721;HTU21D;15950;51.112;6.966;2023-06-04T15:23:10;23.83;31.42
26721;HTU21D;15950;51.112;6.966;2023-06-04T15:26:10;23.84;32.23
26721;HTU21D;15950;51.112;6.966;2023-06-04T15:29:10;23.62;31.59
26721;HTU21D;15950;51.112;6.966;2023-06-04T15:32:10;23.65;31.64
26721;HTU21D;15950;51.112;6.966;2023-06-04T15:35:10;24.06;31.52
26721;HTU21D;15950;51.112;6.966;2023-06-04T15:38:10;24.06;31.84
26721;HTU21D;15950;51.112;6.966;2023-06-04T15:41:10;24.12;30.75
26721;HTU21D;15950;51.112;6.966;2023-06-04T15:44:10;24.05;31.06
26721;HTU21D;15950;51.112;6.966;2023-06-04T15:47:10;24.14;31.72
26721;HTU21D;15950;51.112;6.966;2023-06-04T15:50:10;24.21;31.54
26721;HTU21D;15950;51.112;6.966;2023-06-04T15:53:10;24.21;30.14
26721;HTU21D;15950;51.112;6.966;2023-06-04T15:56:10;24.32;30.62
26721;HTU21D;15950;51.112;6.966;2023-06-04T15:59:10;24.09;30.41
26721;HTU21D;15950;51.112;6.966;2023-06-04T16:02:10;24.24;30.65
26721;HTU21D;15950;51.112;6.966;2023-06-04T16:05:10;24.27;30.32
26721;HTU21D;15950;51.112;6.966;2023-06-04T16:08:10;24.12;30.44
26721;HTU21D;15950;51.112;6.966;2023-06-04T16:11:10;24.32;29.64
26721;HTU21D;15950;51.112;6.966;2023-06-04T16:14:10;24.41;30.12
26721;HTU21D;15950;51.112;6.966;2023-06-04T16:17:10;24.35;29.19
26721;HTU21D;15950;51.112;6.966;2023-06-04T16:20:10;23.98;29.69
26721;HTU21D;15950;51.112;6.966;2023-06-04T16:23:10;23.89;29.87
26721;HTU21D;15950;51.112;6.966;2023-06-04T16:26:10;23.81;29.18
26721;HTU21D;15950;51.112;6.966;2023-06-04T16:29:10;23.60;29.49
26721;HTU21D;15950;51.112;6.966;2023-06-04T16:32:10;23.77;29.93
26721;HTU21D;15950;51.112;6.966;2023-06-04T16:35:10;23.82;29.19
26721;HTU21D;15950;51.112;6.966;2023-06-04T16:38:10;23.78;29.57
26721;HTU21D;15950;51.112;6.966;2023-06-04T16:41:10;23.62;29.74
26721;HTU21D;15950;51.112;6.966;2023-06-04T16:44:10;23.16;29.33
26721;HTU21D;15950;51.112;6.966;2023-06-04T16:47:10;23.45;29.78
26721;HTU21D;15950;51.112;6.966;2023-06-04T16:50:10;23.32;29.66
26721;HTU21D;15950;51.112;6.966;2023-06-04T16:53:10;23.57;30.47
26721;HTU21D;15950;51.112;6.966;2023-06-04T16:56:10;23.47;29.93
26721;HTU21D;15950;51.112;6.966;2023-06-04T16:59:10;23.31;29.53
26721;HTU21D;15950;51.112;6.966;2023-06-04T17:02:10;23.21;29.63
26721;HTU21D;15950;51.112;6.966;2023-06-04T17:05:10;23.16;29.25
26721;HTU21D;15950;51.112;6.966;2023-06-04T17:08:10;23.14;29.84
26721;HTU21D;15950;51.112;6.966;2023-06-04T17:11:10;23.17;30.38
26721;HTU21D;15950;51.112;6.966;2023-06-04T17:14:10;23.16;30.06
26721;HTU21D;15950;51.112;6.966;2023-06-04T17:17:10;23.01;29.68
26721;HTU21D;15950;51.112;6.966;2023-06-04T17:20:10;23.23;29.58
26721;HTU21D;15950;51.112;6.966;2023-06-04T17:23:18;23.27;30.18
26721;HTU21D;15950;51.112;6.966;2023-06-04T17:26:10;23.28;29.93
26721;HTU21D;15950;51.112;6.966;2023-06-04T17:29:10;23.20;29.49
26721;HTU21D;15950;51.112;6.966;2023-06-04T17:32:10;23.31;29.47
26721;HTU21D;15950;51.112;6.966;2023-06-04T17:35:10;23.19;29.37
26721;HTU21D;15950;51.112;6.966;2023-06-04T17:38:10;23.24;30.03
26721;HTU21D;15950;51.112;6.966;2023-06-04T17:41:10;23.05;28.46
26721;HTU21D;15950;51.112;6.966;2023-06-04T17:44:10;23.03;28.81
26721;HTU21D;15950;51.112;6.966;2023-06-04T17:47:10;23.00;29.42
26721;HTU21D;15950;51.112;6.966;2023-06-04T17:50:10;22.85;28.76
26721;HTU21D;15950;51.112;6.966;2023-06-04T17:53:10;22.72;29.48
26721;HTU21D;15950;51.112;6.966;2023-06-04T17:56:10;22.93;29.13
26721;HTU21D;15950;51.112;6.966;2023-06-04T17:59:10;22.80;29.61
26721;HTU21D;15950;51.112;6.966;2023-06-04T18:02:10;22.40;29.35
26721;HTU21D;15950;51.112;6.966;2023-06-04T18:05:10;22.63;30.35
26721;HTU21D;15950;51.112;6.966;2023-06-04T18:08:10;22.59;30.05
26721;HTU21D;15950;51.112;6.966;2023-06-04T18:11:10;22.63;29.71
26721;HTU21D;15950;51.112;6.966;2023-06-04T18:14:10;22.47;29.90
26721;HTU21D;15950;51.112;6.966;2023-06-04T18:17:10;22.49;30.74
26721;HTU21D;15950;51.112;6.966;2023-06-04T18:20:10;22.45;30.15
26721;HTU21D;15950;51.112;6.966;2023-06-04T18:23:10;22.40;30.97
26721;HTU21D;15950;51.112;6.966;2023-06-04T18:26:10;22.43;30.88
26721;HTU21D;15950;51.112;6.966;2023-06-04T18:29:10;22.25;31.09
26721;HTU21D;15950;51.112;6.966;2023-06-04T18:32:10;22.32;30.29
26721;HTU21D;15950;51.112;6.966;2023-06-04T18:35:10;22.31;30.55
26721;HTU21D;15950;51.112;6.966;2023-06-04T18:38:10;22.34;31.29
26721;HTU21D;15950;51.112;6.966;2023-06-04T18:41:10;22.00;31.53
26721;HTU21D;15950;51.112;6.966;2023-06-04T18:44:10;21.98;31.88
26721;HTU21D;15950;51.112;6.966;2023-06-04T18:47:10;22.17;31.65
26721;HTU21D;15950;51.112;6.966;2023-06-04T18:50:10;21.83;32.59
26721;HTU21D;15950;51.112;6.966;2023-06-04T18:53:10;21.93;32.76
26721;HTU21D;15950;51.112;6.966;2023-06-04T18:56:10;21.67;31.87
26721;HTU21D;15950;51.112;6.966;2023-06-04T18:59:14;21.74;32.82